Terminal Aerodrome Forecast
Issued by NWS

Home | Current Version | Previous Version | Text Only | Print | Product List | Glossary On
Versions: 1 2 3 4 5 6 7 8 9 10 11 12 13 14 15 16 17 18 19
000
FTUS43 KJKL 211200 AAA
TAFSME
TAF AMD
KSME 211222Z 2112/2212 00000KT 3SM BR SCT005
      TEMPO 2112/2113 VRB03KT 1/4SM FG OVC004
     FM211330 30004KT 6SM BR SCT030 BKN050
     FM211800 33005KT P6SM BKN050
     FM220000 00000KT P6SM FEW030 SCT050=

USA.gov is the U.S. government's official web portal to all federal, state and local government web resources and services.